aviador You're here:

KLZU Decoded Metar

LAWRENCEVILLE in GA, USA
Report Time2018-07-19 18:56:00
UTC Time2018-07-19 19:09:28
Flight Rules vfr VFR
Wind040° at 07 kt
W.Decomp.*RWY 07: 6.3 kt HW 3 kt LCW
W.Rank040° ranks 20
Current wind is above 040° avg. (6.2)
Visibility9999 m
Phenomena:N/A
Clouds:Scattered 031 Hf
Scattered 070 Hf
Expected CloudBase > 3,200 ft AGL from Temp-Dew spread
CeilingNone
Temp31°C (ISA +18)
Dew Point23°C (62% RH)
Heat Index35.4°C
QNH1015 hPa
Density Alt3,435 ft
Elevation1,060 ft
Report Wrong Elevation
Raw Report
METAR KLZU 191856Z 04007KT 010V070 10SM SCT031 SCT070 31/23 A2998 RMK
AO2 SLP151 T03060233=

Extra information for KLZU:More info

Metar Taf Metar & Taf Last 4 Metars F.Rules Stats Wind Profile Meteogram Temp Stats Airport Information Weather charts Add Link Nearby VenuesMetar ALERT Operation Metar Decoded Social comments

AIRNAV info for KLZU